sensor_id;sensor_type;location;lat;lon;timestamp;temperature;humidity
1948;DHT22;974;52.400;9.818;2023-11-21T00:01:40;8.30;99.90
1948;DHT22;974;52.400;9.818;2023-11-21T00:04:06;8.30;99.90
1948;DHT22;974;52.400;9.818;2023-11-21T00:06:36;8.20;99.90
1948;DHT22;974;52.400;9.818;2023-11-21T00:09:01;8.20;99.90
1948;DHT22;974;52.400;9.818;2023-11-21T00:11:27;8.20;99.90
1948;DHT22;974;52.400;9.818;2023-11-21T00:13:54;8.20;99.90
1948;DHT22;974;52.400;9.818;2023-11-21T00:16:20;8.30;99.90
1948;DHT22;974;52.400;9.818;2023-11-21T00:18:47;8.30;99.90
1948;DHT22;974;52.400;9.818;2023-11-21T00:21:25;8.20;99.90
1948;DHT22;974;52.400;9.818;2023-11-21T00:23:51;8.20;99.90
1948;DHT22;974;52.400;9.818;2023-11-21T00:26:19;8.20;99.90
1948;DHT22;974;52.400;9.818;2023-11-21T00:28:45;8.30;99.90
1948;DHT22;974;52.400;9.818;2023-11-21T00:31:13;8.30;99.90
1948;DHT22;974;52.400;9.818;2023-11-21T00:33:39;8.30;99.90
1948;DHT22;974;52.400;9.818;2023-11-21T00:36:05;8.30;99.90
1948;DHT22;974;52.400;9.818;2023-11-21T00:38:35;8.30;99.90
1948;DHT22;974;52.400;9.818;2023-11-21T00:41:01;8.30;99.90
1948;DHT22;974;52.400;9.818;2023-11-21T00:43:30;8.30;99.90
1948;DHT22;974;52.400;9.818;2023-11-21T00:45:55;8.30;99.90
1948;DHT22;974;52.400;9.818;2023-11-21T00:48:21;8.30;99.90
1948;DHT22;974;52.400;9.818;2023-11-21T00:50:47;8.30;99.90
1948;DHT22;974;52.400;9.818;2023-11-21T00:53:19;8.30;99.90
1948;DHT22;974;52.400;9.818;2023-11-21T00:55:44;8.30;99.90
1948;DHT22;974;52.400;9.818;2023-11-21T00:58:10;8.30;99.90
1948;DHT22;974;52.400;9.818;2023-11-21T01:00:35;8.30;99.90
1948;DHT22;974;52.400;9.818;2023-11-21T01:03:04;8.30;99.90
1948;DHT22;974;52.400;9.818;2023-11-21T01:05:30;8.30;99.90
1948;DHT22;974;52.400;9.818;2023-11-21T01:07:58;8.30;99.90
1948;DHT22;974;52.400;9.818;2023-11-21T01:10:24;8.30;99.90
1948;DHT22;974;52.400;9.818;2023-11-21T01:12:50;8.20;99.90
1948;DHT22;974;52.400;9.818;2023-11-21T01:15:15;8.30;99.90
1948;DHT22;974;52.400;9.818;2023-11-21T01:17:41;8.30;99.90
1948;DHT22;974;52.400;9.818;2023-11-21T01:20:07;8.30;99.90
1948;DHT22;974;52.400;9.818;2023-11-21T01:22:37;8.30;99.90
1948;DHT22;974;52.400;9.818;2023-11-21T01:25:04;8.30;99.90
1948;DHT22;974;52.400;9.818;2023-11-21T01:27:35;8.30;99.90
1948;DHT22;974;52.400;9.818;2023-11-21T01:30:02;8.40;99.90
1948;DHT22;974;52.400;9.818;2023-11-21T01:32:28;8.30;99.90
1948;DHT22;974;52.400;9.818;2023-11-21T01:34:54;8.30;99.90
1948;DHT22;974;52.400;9.818;2023-11-21T01:37:20;8.30;99.90
1948;DHT22;974;52.400;9.818;2023-11-21T01:39:47;8.30;99.90
1948;DHT22;974;52.400;9.818;2023-11-21T01:42:13;8.30;99.90
1948;DHT22;974;52.400;9.818;2023-11-21T01:44:41;8.30;99.90
1948;DHT22;974;52.400;9.818;2023-11-21T01:47:08;8.30;99.90
1948;DHT22;974;52.400;9.818;2023-11-21T01:49:35;8.30;99.90
1948;DHT22;974;52.400;9.818;2023-11-21T01:52:01;8.30;99.90
1948;DHT22;974;52.400;9.818;2023-11-21T01:54:28;8.30;99.90
1948;DHT22;974;52.400;9.818;2023-11-21T01:57:00;8.30;99.90
1948;DHT22;974;52.400;9.818;2023-11-21T01:59:37;8.30;99.90
1948;DHT22;974;52.400;9.818;2023-11-21T02:02:06;8.30;99.90
1948;DHT22;974;52.400;9.818;2023-11-21T02:04:32;8.20;99.90
1948;DHT22;974;52.400;9.818;2023-11-21T02:06:58;8.20;99.90
1948;DHT22;974;52.400;9.818;2023-11-21T02:09:27;8.20;99.90
1948;DHT22;974;52.400;9.818;2023-11-21T02:11:54;8.20;99.90
1948;DHT22;974;52.400;9.818;2023-11-21T02:14:21;8.20;99.90
1948;DHT22;974;52.400;9.818;2023-11-21T02:16:50;8.20;99.90
1948;DHT22;974;52.400;9.818;2023-11-21T02:19:21;8.30;99.90
1948;DHT22;974;52.400;9.818;2023-11-21T02:21:50;8.20;99.90
1948;DHT22;974;52.400;9.818;2023-11-21T02:24:21;8.30;99.90
1948;DHT22;974;52.400;9.818;2023-11-21T02:26:51;8.30;99.90
1948;DHT22;974;52.400;9.818;2023-11-21T02:29:20;8.30;99.90
1948;DHT22;974;52.400;9.818;2023-11-21T02:31:54;8.30;99.90
1948;DHT22;974;52.400;9.818;2023-11-21T02:34:21;8.30;99.90
1948;DHT22;974;52.400;9.818;2023-11-21T02:36:47;8.20;99.90
1948;DHT22;974;52.400;9.818;2023-11-21T02:39:15;8.20;99.90
1948;DHT22;974;52.400;9.818;2023-11-21T02:41:40;8.30;99.90
1948;DHT22;974;52.400;9.818;2023-11-21T02:44:06;8.30;99.90
1948;DHT22;974;52.400;9.818;2023-11-21T02:46:40;8.30;99.90
1948;DHT22;974;52.400;9.818;2023-11-21T02:49:06;8.30;99.90
1948;DHT22;974;52.400;9.818;2023-11-21T02:51:33;8.20;99.90
1948;DHT22;974;52.400;9.818;2023-11-21T02:53:59;8.20;99.90
1948;DHT22;974;52.400;9.818;2023-11-21T02:56:26;8.30;99.90
1948;DHT22;974;52.400;9.818;2023-11-21T02:58:52;8.30;99.90
1948;DHT22;974;52.400;9.818;2023-11-21T03:01:17;8.20;99.90
1948;DHT22;974;52.400;9.818;2023-11-21T03:03:43;8.20;99.90
1948;DHT22;974;52.400;9.818;2023-11-21T03:06:09;8.30;99.90
1948;DHT22;974;52.400;9.818;2023-11-21T03:08:35;8.30;99.90
1948;DHT22;974;52.400;9.818;2023-11-21T03:11:01;8.30;99.90
1948;DHT22;974;52.400;9.818;2023-11-21T03:13:28;8.20;99.90
1948;DHT22;974;52.400;9.818;2023-11-21T03:15:56;8.30;99.90
1948;DHT22;974;52.400;9.818;2023-11-21T03:18:22;8.30;99.90
1948;DHT22;974;52.400;9.818;2023-11-21T03:20:51;8.30;99.90
1948;DHT22;974;52.400;9.818;2023-11-21T03:23:17;8.30;99.90
1948;DHT22;974;52.400;9.818;2023-11-21T03:25:43;8.30;99.90
1948;DHT22;974;52.400;9.818;2023-11-21T03:28:09;8.30;99.90
1948;DHT22;974;52.400;9.818;2023-11-21T03:30:34;8.30;99.90
1948;DHT22;974;52.400;9.818;2023-11-21T03:33:00;8.30;99.90
1948;DHT22;974;52.400;9.818;2023-11-21T03:35:26;8.30;99.90
1948;DHT22;974;52.400;9.818;2023-11-21T03:37:53;8.30;99.90
1948;DHT22;974;52.400;9.818;2023-11-21T03:40:19;8.30;99.90
1948;DHT22;974;52.400;9.818;2023-11-21T03:42:46;8.30;99.90
1948;DHT22;974;52.400;9.818;2023-11-21T03:45:12;8.30;99.90
1948;DHT22;974;52.400;9.818;2023-11-21T03:47:38;8.30;99.90
1948;DHT22;974;52.400;9.818;2023-11-21T03:50:09;8.30;99.90
1948;DHT22;974;52.400;9.818;2023-11-21T03:52:35;8.30;99.90
1948;DHT22;974;52.400;9.818;2023-11-21T03:55:01;8.20;99.90
1948;DHT22;974;52.400;9.818;2023-11-21T03:57:28;8.20;99.90
1948;DHT22;974;52.400;9.818;2023-11-21T03:59:53;8.20;99.90
1948;DHT22;974;52.400;9.818;2023-11-21T04:02:19;8.20;99.90
1948;DHT22;974;52.400;9.818;2023-11-21T04:04:45;8.30;99.90
1948;DHT22;974;52.400;9.818;2023-11-21T04:07:10;8.20;99.90
1948;DHT22;974;52.400;9.818;2023-11-21T04:09:36;8.20;99.90
1948;DHT22;974;52.400;9.818;2023-11-21T04:12:02;8.20;99.90
1948;DHT22;974;52.400;9.818;2023-11-21T04:14:27;8.20;99.90
1948;DHT22;974;52.400;9.818;2023-11-21T04:16:53;8.10;99.90
1948;DHT22;974;52.400;9.818;2023-11-21T04:19:19;8.10;99.90
1948;DHT22;974;52.400;9.818;2023-11-21T04:21:44;8.10;99.90
1948;DHT22;974;52.400;9.818;2023-11-21T04:24:11;8.20;99.90
1948;DHT22;974;52.400;9.818;2023-11-21T04:26:36;8.20;99.90
1948;DHT22;974;52.400;9.818;2023-11-21T04:29:03;8.20;99.90
1948;DHT22;974;52.400;9.818;2023-11-21T04:31:32;8.20;99.90
1948;DHT22;974;52.400;9.818;2023-11-21T04:33:57;8.20;99.90
1948;DHT22;974;52.400;9.818;2023-11-21T04:36:23;8.20;99.90
1948;DHT22;974;52.400;9.818;2023-11-21T04:38:49;8.20;99.90
1948;DHT22;974;52.400;9.818;2023-11-21T04:41:14;8.20;99.90
1948;DHT22;974;52.400;9.818;2023-11-21T04:43:40;8.20;99.90
1948;DHT22;974;52.400;9.818;2023-11-21T04:46:08;8.10;99.90
1948;DHT22;974;52.400;9.818;2023-11-21T04:48:34;8.10;99.90
1948;DHT22;974;52.400;9.818;2023-11-21T04:50:59;8.20;99.90
1948;DHT22;974;52.400;9.818;2023-11-21T04:53:25;8.10;99.90
1948;DHT22;974;52.400;9.818;2023-11-21T04:55:50;8.20;99.90
1948;DHT22;974;52.400;9.818;2023-11-21T04:58:16;8.20;99.90
1948;DHT22;974;52.400;9.818;2023-11-21T05:00:41;8.20;99.90
1948;DHT22;974;52.400;9.818;2023-11-21T05:03:07;8.20;99.90
1948;DHT22;974;52.400;9.818;2023-11-21T05:05:33;8.20;99.90
1948;DHT22;974;52.400;9.818;2023-11-21T05:08:04;8.20;99.90
1948;DHT22;974;52.400;9.818;2023-11-21T05:10:30;8.20;99.90
1948;DHT22;974;52.400;9.818;2023-11-21T05:12:56;8.20;99.90
1948;DHT22;974;52.400;9.818;2023-11-21T05:15:21;8.20;99.90
1948;DHT22;974;52.400;9.818;2023-11-21T05:17:48;8.20;99.90
1948;DHT22;974;52.400;9.818;2023-11-21T05:20:15;8.20;99.90
1948;DHT22;974;52.400;9.818;2023-11-21T05:22:49;8.20;99.90
1948;DHT22;974;52.400;9.818;2023-11-21T05:25:15;8.20;99.90
1948;DHT22;974;52.400;9.818;2023-11-21T05:27:42;8.20;99.90
1948;DHT22;974;52.400;9.818;2023-11-21T05:30:08;8.20;99.90
1948;DHT22;974;52.400;9.818;2023-11-21T05:32:39;8.10;99.90
1948;DHT22;974;52.400;9.818;2023-11-21T05:35:07;8.20;99.90
1948;DHT22;974;52.400;9.818;2023-11-21T05:37:40;8.10;99.90
1948;DHT22;974;52.400;9.818;2023-11-21T05:40:09;8.10;99.90
1948;DHT22;974;52.400;9.818;2023-11-21T05:42:35;8.10;99.90
1948;DHT22;974;52.400;9.818;2023-11-21T05:45:01;8.00;99.90
1948;DHT22;974;52.400;9.818;2023-11-21T05:47:43;8.00;99.90
1948;DHT22;974;52.400;9.818;2023-11-21T05:50:13;8.00;99.90
1948;DHT22;974;52.400;9.818;2023-11-21T05:52:44;8.00;99.90
1948;DHT22;974;52.400;9.818;2023-11-21T05:55:10;8.00;99.90
1948;DHT22;974;52.400;9.818;2023-11-21T05:57:36;8.00;99.90
1948;DHT22;974;52.400;9.818;2023-11-21T06:00:04;8.10;99.90
1948;DHT22;974;52.400;9.818;2023-11-21T06:02:39;8.10;99.90
1948;DHT22;974;52.400;9.818;2023-11-21T06:05:07;8.10;99.90
1948;DHT22;974;52.400;9.818;2023-11-21T06:07:33;8.00;99.90
1948;DHT22;974;52.400;9.818;2023-11-21T06:09:58;8.10;99.90
1948;DHT22;974;52.400;9.818;2023-11-21T06:12:24;8.00;99.90
1948;DHT22;974;52.400;9.818;2023-11-21T06:14:53;8.10;99.90
1948;DHT22;974;52.400;9.818;2023-11-21T06:17:18;8.10;99.90
1948;DHT22;974;52.400;9.818;2023-11-21T06:19:44;8.10;99.90
1948;DHT22;974;52.400;9.818;2023-11-21T06:22:11;8.10;99.90
1948;DHT22;974;52.400;9.818;2023-11-21T06:24:37;8.10;99.90
1948;DHT22;974;52.400;9.818;2023-11-21T06:27:06;8.10;99.90
1948;DHT22;974;52.400;9.818;2023-11-21T06:29:31;8.00;99.90
1948;DHT22;974;52.400;9.818;2023-11-21T06:31:57;7.90;99.90
1948;DHT22;974;52.400;9.818;2023-11-21T06:34:23;7.60;99.90
1948;DHT22;974;52.400;9.818;2023-11-21T06:36:49;7.60;99.90
1948;DHT22;974;52.400;9.818;2023-11-21T06:39:15;7.60;99.90
1948;DHT22;974;52.400;9.818;2023-11-21T06:41:42;7.50;99.90
1948;DHT22;974;52.400;9.818;2023-11-21T06:44:08;7.40;99.90
1948;DHT22;974;52.400;9.818;2023-11-21T06:46:37;7.40;99.90
1948;DHT22;974;52.400;9.818;2023-11-21T06:49:04;7.50;99.90
1948;DHT22;974;52.400;9.818;2023-11-21T06:51:31;7.20;99.90
1948;DHT22;974;52.400;9.818;2023-11-21T06:53:57;7.40;99.90
1948;DHT22;974;52.400;9.818;2023-11-21T06:56:22;7.40;99.90
1948;DHT22;974;52.400;9.818;2023-11-21T06:58:48;7.40;99.90
1948;DHT22;974;52.400;9.818;2023-11-21T07:01:17;7.10;99.90
1948;DHT22;974;52.400;9.818;2023-11-21T07:03:43;7.10;99.90
1948;DHT22;974;52.400;9.818;2023-11-21T07:06:08;7.20;99.90
1948;DHT22;974;52.400;9.818;2023-11-21T07:08:34;7.20;99.90
1948;DHT22;974;52.400;9.818;2023-11-21T07:10:59;7.10;99.90
1948;DHT22;974;52.400;9.818;2023-11-21T07:13:25;7.00;99.90
1948;DHT22;974;52.400;9.818;2023-11-21T07:15:51;7.00;99.90
1948;DHT22;974;52.400;9.818;2023-11-21T07:18:17;7.20;99.90
1948;DHT22;974;52.400;9.818;2023-11-21T07:20:43;7.20;99.90
1948;DHT22;974;52.400;9.818;2023-11-21T07:23:12;7.10;99.90
1948;DHT22;974;52.400;9.818;2023-11-21T07:25:37;7.10;99.90
1948;DHT22;974;52.400;9.818;2023-11-21T07:28:03;7.20;99.90
1948;DHT22;974;52.400;9.818;2023-11-21T07:30:30;7.10;99.90
1948;DHT22;974;52.400;9.818;2023-11-21T07:32:56;7.10;99.90
1948;DHT22;974;52.400;9.818;2023-11-21T07:35:21;7.10;99.90
1948;DHT22;974;52.400;9.818;2023-11-21T07:37:47;7.00;99.90
1948;DHT22;974;52.400;9.818;2023-11-21T07:40:14;7.10;99.90
1948;DHT22;974;52.400;9.818;2023-11-21T07:42:41;6.90;99.90
1948;DHT22;974;52.400;9.818;2023-11-21T07:45:08;7.00;99.90
1948;DHT22;974;52.400;9.818;2023-11-21T07:47:34;7.00;99.90
1948;DHT22;974;52.400;9.818;2023-11-21T07:50:03;6.90;99.90
1948;DHT22;974;52.400;9.818;2023-11-21T07:52:28;7.00;99.90
1948;DHT22;974;52.400;9.818;2023-11-21T07:54:54;7.00;99.90
1948;DHT22;974;52.400;9.818;2023-11-21T07:57:19;6.90;99.90
1948;DHT22;974;52.400;9.818;2023-11-21T07:59:45;7.00;99.90
1948;DHT22;974;52.400;9.818;2023-11-21T08:02:10;6.90;99.90
1948;DHT22;974;52.400;9.818;2023-11-21T08:04:36;7.00;99.90
1948;DHT22;974;52.400;9.818;2023-11-21T08:07:02;7.00;99.90
1948;DHT22;974;52.400;9.818;2023-11-21T08:09:32;6.70;99.90
1948;DHT22;974;52.400;9.818;2023-11-21T08:12:02;6.80;99.90
1948;DHT22;974;52.400;9.818;2023-11-21T08:14:28;7.00;99.90
1948;DHT22;974;52.400;9.818;2023-11-21T08:16:54;7.00;99.90
1948;DHT22;974;52.400;9.818;2023-11-21T08:19:23;7.10;99.90
1948;DHT22;974;52.400;9.818;2023-11-21T08:21:51;6.90;99.90
1948;DHT22;974;52.400;9.818;2023-11-21T08:24:20;6.80;99.90
1948;DHT22;974;52.400;9.818;2023-11-21T08:26:49;6.90;99.90
1948;DHT22;974;52.400;9.818;2023-11-21T08:29:16;7.00;99.90
1948;DHT22;974;52.400;9.818;2023-11-21T08:31:42;6.90;99.90
1948;DHT22;974;52.400;9.818;2023-11-21T08:34:07;6.70;99.90
1948;DHT22;974;52.400;9.818;2023-11-21T08:36:47;6.90;99.90
1948;DHT22;974;52.400;9.818;2023-11-21T08:39:12;6.90;99.90
1948;DHT22;974;52.400;9.818;2023-11-21T08:41:41;6.90;99.90
1948;DHT22;974;52.400;9.818;2023-11-21T08:44:07;7.20;99.90
1948;DHT22;974;52.400;9.818;2023-11-21T08:46:33;7.20;99.90
1948;DHT22;974;52.400;9.818;2023-11-21T08:49:03;7.20;99.90
1948;DHT22;974;52.400;9.818;2023-11-21T08:51:29;7.20;99.90
1948;DHT22;974;52.400;9.818;2023-11-21T08:53:57;7.20;99.90
1948;DHT22;974;52.400;9.818;2023-11-21T08:56:26;7.30;99.90
1948;DHT22;974;52.400;9.818;2023-11-21T08:58:52;7.40;99.90
1948;DHT22;974;52.400;9.818;2023-11-21T09:01:18;7.40;99.90
1948;DHT22;974;52.400;9.818;2023-11-21T09:03:43;7.60;99.90
1948;DHT22;974;52.400;9.818;2023-11-21T09:06:12;7.50;99.90
1948;DHT22;974;52.400;9.818;2023-11-21T09:08:37;7.50;99.90
1948;DHT22;974;52.400;9.818;2023-11-21T09:11:03;7.50;99.90
1948;DHT22;974;52.400;9.818;2023-11-21T09:13:28;7.50;99.90
1948;DHT22;974;52.400;9.818;2023-11-21T09:15:55;7.40;99.90
1948;DHT22;974;52.400;9.818;2023-11-21T09:18:20;7.30;99.90
1948;DHT22;974;52.400;9.818;2023-11-21T09:20:46;7.40;99.90
1948;DHT22;974;52.400;9.818;2023-11-21T09:23:12;7.30;99.90
1948;DHT22;974;52.400;9.818;2023-11-21T09:25:37;7.40;99.90
1948;DHT22;974;52.400;9.818;2023-11-21T09:28:04;7.40;99.90
1948;DHT22;974;52.400;9.818;2023-11-21T09:30:36;7.40;99.90
1948;DHT22;974;52.400;9.818;2023-11-21T09:33:03;7.40;99.90
1948;DHT22;974;52.400;9.818;2023-11-21T09:35:30;7.20;99.90
1948;DHT22;974;52.400;9.818;2023-11-21T09:37:56;7.30;99.90
1948;DHT22;974;52.400;9.818;2023-11-21T09:40:22;7.30;99.90
1948;DHT22;974;52.400;9.818;2023-11-21T09:42:55;7.40;99.90
1948;DHT22;974;52.400;9.818;2023-11-21T09:45:29;7.40;99.90
1948;DHT22;974;52.400;9.818;2023-11-21T09:47:59;7.50;99.90
1948;DHT22;974;52.400;9.818;2023-11-21T09:50:25;7.30;99.90
1948;DHT22;974;52.400;9.818;2023-11-21T09:53:22;7.20;99.90
1948;DHT22;974;52.400;9.818;2023-11-21T09:55:53;7.20;99.90
1948;DHT22;974;52.400;9.818;2023-11-21T09:58:19;7.20;99.90
1948;DHT22;974;52.400;9.818;2023-11-21T10:00:48;7.40;99.90
1948;DHT22;974;52.400;9.818;2023-11-21T10:03:14;7.50;99.90
1948;DHT22;974;52.400;9.818;2023-11-21T10:05:42;7.50;99.90
1948;DHT22;974;52.400;9.818;2023-11-21T10:08:09;7.50;99.90
1948;DHT22;974;52.400;9.818;2023-11-21T10:10:35;7.50;99.90
1948;DHT22;974;52.400;9.818;2023-11-21T10:13:03;7.30;99.90
1948;DHT22;974;52.400;9.818;2023-11-21T10:15:34;7.50;99.90
1948;DHT22;974;52.400;9.818;2023-11-21T10:18:06;7.50;99.90
1948;DHT22;974;52.400;9.818;2023-11-21T10:20:33;7.60;99.90
1948;DHT22;974;52.400;9.818;2023-11-21T10:23:03;7.40;99.90
1948;DHT22;974;52.400;9.818;2023-11-21T10:25:30;7.40;99.90
1948;DHT22;974;52.400;9.818;2023-11-21T10:28:01;7.40;99.90
1948;DHT22;974;52.400;9.818;2023-11-21T10:30:45;7.40;99.90
1948;DHT22;974;52.400;9.818;2023-11-21T10:33:11;7.30;99.90
1948;DHT22;974;52.400;9.818;2023-11-21T10:35:54;7.50;99.90
1948;DHT22;974;52.400;9.818;2023-11-21T10:38:23;7.60;99.90
1948;DHT22;974;52.400;9.818;2023-11-21T10:40:53;7.60;99.90
1948;DHT22;974;52.400;9.818;2023-11-21T10:43:20;7.50;99.90
1948;DHT22;974;52.400;9.818;2023-11-21T10:45:49;7.50;99.90
1948;DHT22;974;52.400;9.818;2023-11-21T10:48:18;7.50;99.90
1948;DHT22;974;52.400;9.818;2023-11-21T10:50:45;7.50;99.90
1948;DHT22;974;52.400;9.818;2023-11-21T10:53:14;7.50;99.90
1948;DHT22;974;52.400;9.818;2023-11-21T10:55:40;7.40;99.90
1948;DHT22;974;52.400;9.818;2023-11-21T10:58:05;7.30;99.90
1948;DHT22;974;52.400;9.818;2023-11-21T11:00:32;7.20;99.90
1948;DHT22;974;52.400;9.818;2023-11-21T11:02:59;7.30;99.90
1948;DHT22;974;52.400;9.818;2023-11-21T11:05:28;7.40;99.90
1948;DHT22;974;52.400;9.818;2023-11-21T11:08:05;7.30;99.90
1948;DHT22;974;52.400;9.818;2023-11-21T11:10:31;7.40;99.90
1948;DHT22;974;52.400;9.818;2023-11-21T11:12:58;7.40;99.90
1948;DHT22;974;52.400;9.818;2023-11-21T11:15:29;7.40;99.90
1948;DHT22;974;52.400;9.818;2023-11-21T11:17:55;7.60;99.90
1948;DHT22;974;52.400;9.818;2023-11-21T11:20:34;7.70;99.90
1948;DHT22;974;52.400;9.818;2023-11-21T11:29:03;7.70;99.90
1948;DHT22;974;52.400;9.818;2023-11-21T11:32:02;8.00;99.90
1948;DHT22;974;52.400;9.818;2023-11-21T11:34:44;8.00;99.90
1948;DHT22;974;52.400;9.818;2023-11-21T11:37:12;7.90;99.90
1948;DHT22;974;52.400;9.818;2023-11-21T11:39:42;7.90;99.90
1948;DHT22;974;52.400;9.818;2023-11-21T11:42:12;7.80;99.90
1948;DHT22;974;52.400;9.818;2023-11-21T11:47:23;7.70;99.90
1948;DHT22;974;52.400;9.818;2023-11-21T11:50:11;7.60;99.90
1948;DHT22;974;52.400;9.818;2023-11-21T11:52:49;7.60;99.90
1948;DHT22;974;52.400;9.818;2023-11-21T11:55:24;7.30;99.90
1948;DHT22;974;52.400;9.818;2023-11-21T11:57:53;7.40;99.90
1948;DHT22;974;52.400;9.818;2023-11-21T12:00:33;7.50;99.90
1948;DHT22;974;52.400;9.818;2023-11-21T12:03:04;7.50;99.90
1948;DHT22;974;52.400;9.818;2023-11-21T12:05:32;7.40;99.90
1948;DHT22;974;52.400;9.818;2023-11-21T12:08:00;7.60;99.90
1948;DHT22;974;52.400;9.818;2023-11-21T12:10:28;7.40;99.90
1948;DHT22;974;52.400;9.818;2023-11-21T12:13:02;7.60;99.90
1948;DHT22;974;52.400;9.818;2023-11-21T12:15:28;7.70;99.90
1948;DHT22;974;52.400;9.818;2023-11-21T12:17:57;7.60;99.90
1948;DHT22;974;52.400;9.818;2023-11-21T12:20:27;7.70;99.90
1948;DHT22;974;52.400;9.818;2023-11-21T12:22:54;7.50;99.90
1948;DHT22;974;52.400;9.818;2023-11-21T12:25:25;7.50;99.90
1948;DHT22;974;52.400;9.818;2023-11-21T12:27:54;7.50;99.90
1948;DHT22;974;52.400;9.818;2023-11-21T12:30:35;7.40;99.90
1948;DHT22;974;52.400;9.818;2023-11-21T12:33:04;7.50;99.90
1948;DHT22;974;52.400;9.818;2023-11-21T12:35:34;7.60;99.90
1948;DHT22;974;52.400;9.818;2023-11-21T12:38:01;7.60;99.90
1948;DHT22;974;52.400;9.818;2023-11-21T12:40:30;7.70;99.90
1948;DHT22;974;52.400;9.818;2023-11-21T12:42:58;7.60;99.90
1948;DHT22;974;52.400;9.818;2023-11-21T12:45:26;7.60;99.90
1948;DHT22;974;52.400;9.818;2023-11-21T12:47:57;7.60;99.90
1948;DHT22;974;52.400;9.818;2023-11-21T12:50:26;7.50;99.90
1948;DHT22;974;52.400;9.818;2023-11-21T12:53:01;7.50;99.90
1948;DHT22;974;52.400;9.818;2023-11-21T12:55:30;7.50;99.90
1948;DHT22;974;52.400;9.818;2023-11-21T12:57:56;7.60;99.90
1948;DHT22;974;52.400;9.818;2023-11-21T13:00:33;7.60;99.90
1948;DHT22;974;52.400;9.818;2023-11-21T13:03:04;7.60;99.90
1948;DHT22;974;52.400;9.818;2023-11-21T13:05:37;7.50;99.90
1948;DHT22;974;52.400;9.818;2023-11-21T13:08:14;7.50;99.90
1948;DHT22;974;52.400;9.818;2023-11-21T13:10:45;7.50;99.90
1948;DHT22;974;52.400;9.818;2023-11-21T13:13:13;7.50;99.90
1948;DHT22;974;52.400;9.818;2023-11-21T13:15:49;7.80;99.90
1948;DHT22;974;52.400;9.818;2023-11-21T13:18:15;7.60;99.90
1948;DHT22;974;52.400;9.818;2023-11-21T13:20:42;7.50;99.90
1948;DHT22;974;52.400;9.818;2023-11-21T13:23:15;7.50;99.90
1948;DHT22;974;52.400;9.818;2023-11-21T13:25:42;7.60;99.90
1948;DHT22;974;52.400;9.818;2023-11-21T13:28:08;7.70;99.90
1948;DHT22;974;52.400;9.818;2023-11-21T13:30:35;7.60;99.90
1948;DHT22;974;52.400;9.818;2023-11-21T13:33:04;7.50;99.90
1948;DHT22;974;52.400;9.818;2023-11-21T13:35:36;7.40;99.90
1948;DHT22;974;52.400;9.818;2023-11-21T13:38:13;7.40;99.90
1948;DHT22;974;52.400;9.818;2023-11-21T13:40:41;7.50;99.90
1948;DHT22;974;52.400;9.818;2023-11-21T13:43:12;7.60;99.90
1948;DHT22;974;52.400;9.818;2023-11-21T13:45:42;7.60;99.90
1948;DHT22;974;52.400;9.818;2023-11-21T13:48:08;7.30;99.90
1948;DHT22;974;52.400;9.818;2023-11-21T13:50:42;7.40;99.90
1948;DHT22;974;52.400;9.818;2023-11-21T13:53:23;7.40;99.90
1948;DHT22;974;52.400;9.818;2023-11-21T13:55:52;7.30;99.90
1948;DHT22;974;52.400;9.818;2023-11-21T13:58:23;7.30;99.90
1948;DHT22;974;52.400;9.818;2023-11-21T14:01:07;7.30;99.90
1948;DHT22;974;52.400;9.818;2023-11-21T14:03:47;7.20;99.90
1948;DHT22;974;52.400;9.818;2023-11-21T14:06:18;7.20;99.90
1948;DHT22;974;52.400;9.818;2023-11-21T14:08:50;7.20;99.90
1948;DHT22;974;52.400;9.818;2023-11-21T14:11:15;7.20;99.90
1948;DHT22;974;52.400;9.818;2023-11-21T14:13:43;7.20;99.90
1948;DHT22;974;52.400;9.818;2023-11-21T14:16:13;7.30;99.90
1948;DHT22;974;52.400;9.818;2023-11-21T14:18:39;7.20;99.90
1948;DHT22;974;52.400;9.818;2023-11-21T14:21:18;7.20;99.90
1948;DHT22;974;52.400;9.818;2023-11-21T14:23:43;7.10;99.90
1948;DHT22;974;52.400;9.818;2023-11-21T14:26:11;7.20;99.90
1948;DHT22;974;52.400;9.818;2023-11-21T14:28:39;7.10;99.90
1948;DHT22;974;52.400;9.818;2023-11-21T14:31:04;7.00;99.90
1948;DHT22;974;52.400;9.818;2023-11-21T14:33:30;7.00;99.90
1948;DHT22;974;52.400;9.818;2023-11-21T14:35:56;7.00;99.90
1948;DHT22;974;52.400;9.818;2023-11-21T14:38:23;6.90;99.90
1948;DHT22;974;52.400;9.818;2023-11-21T14:40:48;6.80;99.90
1948;DHT22;974;52.400;9.818;2023-11-21T14:43:14;6.80;99.90
1948;DHT22;974;52.400;9.818;2023-11-21T14:45:41;6.80;99.90
1948;DHT22;974;52.400;9.818;2023-11-21T14:48:06;6.80;99.90
1948;DHT22;974;52.400;9.818;2023-11-21T14:50:37;6.90;99.90
1948;DHT22;974;52.400;9.818;2023-11-21T14:53:16;7.00;99.90
1948;DHT22;974;52.400;9.818;2023-11-21T14:55:56;6.90;99.90
1948;DHT22;974;52.400;9.818;2023-11-21T14:58:28;6.90;99.90
1948;DHT22;974;52.400;9.818;2023-11-21T15:01:00;6.90;99.90
1948;DHT22;974;52.400;9.818;2023-11-21T15:03:27;6.80;99.90
1948;DHT22;974;52.400;9.818;2023-11-21T15:06:03;6.70;99.90
1948;DHT22;974;52.400;9.818;2023-11-21T15:08:48;6.60;99.90
1948;DHT22;974;52.400;9.818;2023-11-21T15:11:18;6.50;99.90
1948;DHT22;974;52.400;9.818;2023-11-21T15:13:44;6.60;99.90
1948;DHT22;974;52.400;9.818;2023-11-21T15:16:16;6.60;99.90
1948;DHT22;974;52.400;9.818;2023-11-21T15:18:41;6.80;99.90
1948;DHT22;974;52.400;9.818;2023-11-21T15:21:07;6.70;99.90
1948;DHT22;974;52.400;9.818;2023-11-21T15:23:36;6.60;99.90
1948;DHT22;974;52.400;9.818;2023-11-21T15:26:02;6.40;99.90
1948;DHT22;974;52.400;9.818;2023-11-21T15:28:29;6.60;99.90
1948;DHT22;974;52.400;9.818;2023-11-21T15:30:54;6.70;99.90
1948;DHT22;974;52.400;9.818;2023-11-21T15:33:21;6.50;99.90
1948;DHT22;974;52.400;9.818;2023-11-21T15:35:46;6.60;99.90
1948;DHT22;974;52.400;9.818;2023-11-21T15:38:12;6.50;99.90
1948;DHT22;974;52.400;9.818;2023-11-21T15:40:39;6.40;99.90
1948;DHT22;974;52.400;9.818;2023-11-21T15:43:04;6.50;99.90
1948;DHT22;974;52.400;9.818;2023-11-21T15:45:32;6.60;99.90
1948;DHT22;974;52.400;9.818;2023-11-21T15:48:01;6.60;99.90
1948;DHT22;974;52.400;9.818;2023-11-21T15:50:30;6.60;99.90
1948;DHT22;974;52.400;9.818;2023-11-21T15:52:57;6.40;99.90
1948;DHT22;974;52.400;9.818;2023-11-21T15:55:23;6.20;99.90
1948;DHT22;974;52.400;9.818;2023-11-21T15:57:49;6.20;99.90
1948;DHT22;974;52.400;9.818;2023-11-21T16:00:15;6.20;99.90
1948;DHT22;974;52.400;9.818;2023-11-21T16:02:46;6.20;99.90
1948;DHT22;974;52.400;9.818;2023-11-21T16:05:12;6.30;99.90
1948;DHT22;974;52.400;9.818;2023-11-21T16:07:42;6.20;99.90
1948;DHT22;974;52.400;9.818;2023-11-21T16:10:09;6.20;99.90
1948;DHT22;974;52.400;9.818;2023-11-21T16:12:42;6.10;99.90
1948;DHT22;974;52.400;9.818;2023-11-21T16:15:08;6.20;99.90
1948;DHT22;974;52.400;9.818;2023-11-21T16:17:41;6.20;99.90
1948;DHT22;974;52.400;9.818;2023-11-21T16:20:07;6.10;99.90
1948;DHT22;974;52.400;9.818;2023-11-21T16:22:38;6.10;99.90
1948;DHT22;974;52.400;9.818;2023-11-21T16:25:04;6.20;99.90
1948;DHT22;974;52.400;9.818;2023-11-21T16:27:34;6.20;99.90
1948;DHT22;974;52.400;9.818;2023-11-21T16:30:00;6.20;99.90
1948;DHT22;974;52.400;9.818;2023-11-21T16:32:26;6.10;99.90
1948;DHT22;974;52.400;9.818;2023-11-21T16:34:52;6.10;99.90
1948;DHT22;974;52.400;9.818;2023-11-21T16:37:24;6.20;99.90
1948;DHT22;974;52.400;9.818;2023-11-21T16:39:50;6.20;99.90
1948;DHT22;974;52.400;9.818;2023-11-21T16:42:16;6.20;99.90
1948;DHT22;974;52.400;9.818;2023-11-21T16:44:45;6.20;99.90
1948;DHT22;974;52.400;9.818;2023-11-21T16:47:11;6.30;99.90
1948;DHT22;974;52.400;9.818;2023-11-21T16:49:36;6.30;99.90